createdAt,value
2023-02-14T00:00:22.207Z,9.10
2023-02-14T00:02:49.792Z,9.00
2023-02-14T00:05:17.598Z,8.90
2023-02-14T00:07:44.928Z,8.90
2023-02-14T00:10:12.224Z,9.70
2023-02-14T00:12:39.455Z,9.30
2023-02-14T00:15:28.713Z,8.70
2023-02-14T00:17:59.558Z,9.07
2023-02-14T00:20:27.846Z,9.13
2023-02-14T00:22:55.437Z,9.33
2023-02-14T00:25:22.920Z,8.60
2023-02-14T00:27:55.170Z,8.97
2023-02-14T00:30:22.741Z,9.73
2023-02-14T00:32:49.950Z,8.37
2023-02-14T00:35:17.240Z,10.10
2023-02-14T00:37:46.111Z,9.03
2023-02-14T00:40:13.365Z,8.83
2023-02-14T00:42:40.607Z,8.97
2023-02-14T00:45:08.217Z,9.10
2023-02-14T00:47:35.430Z,9.17
2023-02-14T00:50:04.995Z,8.73
2023-02-14T00:52:32.580Z,8.90
2023-02-14T00:54:59.886Z,8.23
2023-02-14T00:57:27.040Z,8.37
2023-02-14T00:59:54.327Z,8.37
2023-02-14T01:02:21.590Z,8.40
2023-02-14T01:04:48.796Z,9.83
2023-02-14T01:07:16.067Z,8.37
2023-02-14T01:09:43.229Z,8.77
2023-02-14T01:12:10.630Z,8.10
2023-02-14T01:14:38.354Z,8.67
2023-02-14T01:17:05.538Z,8.80
2023-02-14T01:19:32.805Z,7.67
2023-02-14T01:22:01.311Z,8.40
2023-02-14T01:24:28.875Z,8.07
2023-02-14T01:26:56.078Z,7.53
2023-02-14T01:29:23.253Z,8.17
2023-02-14T01:31:50.574Z,8.57
2023-02-14T01:34:17.822Z,8.43
2023-02-14T01:36:45.085Z,8.33
2023-02-14T01:39:13.735Z,7.53
2023-02-14T01:41:42.196Z,8.20
2023-02-14T01:44:29.635Z,8.57
2023-02-14T01:46:57.416Z,8.00
2023-02-14T01:49:33.308Z,8.23
2023-02-14T01:52:04.388Z,7.50
2023-02-14T01:54:32.957Z,7.87
2023-02-14T01:57:03.318Z,8.17
2023-02-14T01:59:32.774Z,7.97
2023-02-14T02:02:00.500Z,7.17
2023-02-14T02:04:31.240Z,7.87
2023-02-14T02:07:00.571Z,8.07
2023-02-14T02:09:39.973Z,7.50
2023-02-14T02:12:07.287Z,8.13
2023-02-14T02:14:35.057Z,8.43
2023-02-14T02:17:04.960Z,7.33
2023-02-14T02:19:38.012Z,7.20
2023-02-14T02:22:23.543Z,7.63
2023-02-14T02:25:04.972Z,7.67
2023-02-14T02:27:52.472Z,7.20
2023-02-14T02:30:36.560Z,7.23
2023-02-14T02:33:07.026Z,7.00
2023-02-14T02:35:37.304Z,7.33
2023-02-14T02:38:13.700Z,7.93
2023-02-14T02:40:40.953Z,7.20
2023-02-14T02:43:08.098Z,7.50
2023-02-14T02:45:35.467Z,7.60
2023-02-14T02:48:05.724Z,7.10
2023-02-14T02:50:53.569Z,7.30
2023-02-14T02:53:24.846Z,6.87
2023-02-14T02:56:33.757Z,8.17
2023-02-14T02:59:04.994Z,7.20
2023-02-14T03:01:35.294Z,7.87
2023-02-14T03:04:47.010Z,7.30
2023-02-14T03:07:32.948Z,7.33
2023-02-14T03:10:00.811Z,7.30
2023-02-14T03:12:42.284Z,6.83
2023-02-14T03:15:10.623Z,7.70
2023-02-14T03:17:53.226Z,7.60
2023-02-14T03:20:43.440Z,7.10
2023-02-14T03:23:26.346Z,7.03
2023-02-14T03:25:53.513Z,6.73
2023-02-14T03:28:23.597Z,7.53
2023-02-14T03:31:26.524Z,6.60
2023-02-14T03:34:02.303Z,7.70
2023-02-14T03:36:32.382Z,7.47
2023-02-14T03:39:09.257Z,7.30
2023-02-14T03:41:42.658Z,6.70
2023-02-14T03:44:11.519Z,6.43
2023-02-14T03:46:41.894Z,7.17
2023-02-14T03:49:11.480Z,7.13
2023-02-14T03:51:39.096Z,6.27
2023-02-14T03:54:08.478Z,7.60
2023-02-14T03:56:37.976Z,7.37
2023-02-14T03:59:11.565Z,7.27
2023-02-14T04:01:46.340Z,7.57
2023-02-14T04:04:15.771Z,6.70
2023-02-14T04:06:43.180Z,7.43
2023-02-14T04:09:10.396Z,7.33
2023-02-14T04:11:38.561Z,6.93
2023-02-14T04:14:06.178Z,6.63
2023-02-14T04:16:56.331Z,7.30
2023-02-14T04:19:23.569Z,7.00
2023-02-14T04:21:51.214Z,7.07
2023-02-14T04:24:18.514Z,7.00
2023-02-14T04:26:54.315Z,7.30
2023-02-14T04:29:21.864Z,7.07
2023-02-14T04:31:49.379Z,7.00
2023-02-14T04:34:16.663Z,6.90
2023-02-14T04:36:43.885Z,7.87
2023-02-14T04:39:11.147Z,7.43
2023-02-14T04:41:38.376Z,6.80
2023-02-14T04:44:05.633Z,7.47
2023-02-14T04:46:32.943Z,7.23
2023-02-14T04:49:00.194Z,7.60
2023-02-14T04:51:27.748Z,7.63
2023-02-14T04:53:54.963Z,7.50
2023-02-14T04:56:22.323Z,7.27
2023-02-14T04:58:49.491Z,7.50
2023-02-14T05:01:16.754Z,7.50
2023-02-14T05:03:43.967Z,8.20
2023-02-14T05:06:11.145Z,7.13
2023-02-14T05:08:38.410Z,7.83
2023-02-14T05:11:05.697Z,8.63
2023-02-14T05:13:32.883Z,7.37
2023-02-14T05:16:00.449Z,7.70
2023-02-14T05:18:27.932Z,8.20
2023-02-14T05:20:55.633Z,8.13
2023-02-14T05:23:22.954Z,8.03
2023-02-14T05:25:50.875Z,8.57
2023-02-14T05:28:18.851Z,8.13
2023-02-14T05:30:46.334Z,7.80
2023-02-14T05:33:13.729Z,7.17
2023-02-14T05:35:40.968Z,7.67
2023-02-14T05:38:08.420Z,7.00
2023-02-14T05:40:35.658Z,7.00
2023-02-14T05:43:03.093Z,7.90
2023-02-14T05:45:30.324Z,8.07
2023-02-14T05:47:57.644Z,7.83
2023-02-14T05:50:24.924Z,7.57
2023-02-14T05:52:52.133Z,8.30
2023-02-14T05:55:19.451Z,8.73
2023-02-14T05:57:46.826Z,7.93
2023-02-14T06:00:14.843Z,7.40
2023-02-14T06:02:42.754Z,7.67
2023-02-14T06:05:10.303Z,6.97
2023-02-14T06:07:37.596Z,7.23
2023-02-14T06:10:04.953Z,7.07
2023-02-14T06:12:32.956Z,6.53
2023-02-14T06:15:00.217Z,7.27
2023-02-14T06:17:27.632Z,7.23
2023-02-14T06:19:54.870Z,7.40
2023-02-14T06:22:22.242Z,7.00
2023-02-14T06:24:49.405Z,7.73
2023-02-14T06:27:16.905Z,8.03
2023-02-14T06:29:44.300Z,7.97
2023-02-14T06:32:11.780Z,7.87
2023-02-14T06:34:40.925Z,7.80
2023-02-14T06:37:08.624Z,8.40
2023-02-14T06:39:35.960Z,16.83
2023-02-14T06:42:03.368Z,17.70
2023-02-14T06:44:30.710Z,11.60
2023-02-14T06:46:57.948Z,9.30
2023-02-14T06:49:25.359Z,8.77
2023-02-14T06:51:52.575Z,7.50
2023-02-14T06:54:19.902Z,7.97
2023-02-14T06:56:47.199Z,7.47
2023-02-14T06:59:14.545Z,7.07
2023-02-14T07:01:41.867Z,8.60
2023-02-14T07:04:09.221Z,7.83
2023-02-14T07:06:39.446Z,8.10
2023-02-14T07:09:07.771Z,7.67
2023-02-14T07:11:35.001Z,8.17
2023-02-14T07:14:02.385Z,8.97
2023-02-14T07:16:29.935Z,8.53
2023-02-14T07:18:57.254Z,9.10
2023-02-14T07:21:24.464Z,8.87
2023-02-14T07:23:51.730Z,8.50
2023-02-14T07:26:18.981Z,7.27
2023-02-14T07:28:48.796Z,8.00
2023-02-14T07:31:17.079Z,7.90
2023-02-14T07:33:44.590Z,7.27
2023-02-14T07:36:13.120Z,7.50
2023-02-14T07:38:40.376Z,7.83
2023-02-14T07:41:07.884Z,8.27
2023-02-14T07:43:35.183Z,8.27
2023-02-14T07:46:02.791Z,8.43
2023-02-14T07:48:32.502Z,8.53
2023-02-14T07:51:01.409Z,8.47
2023-02-14T07:53:28.959Z,7.77
2023-02-14T07:55:56.237Z,6.93
2023-02-14T07:58:23.457Z,7.10
2023-02-14T08:00:51.300Z,7.17
2023-02-14T08:03:19.332Z,7.53
2023-02-14T08:05:57.125Z,6.97
2023-02-14T08:08:25.605Z,7.50
2023-02-14T08:10:52.851Z,7.10
2023-02-14T08:13:20.101Z,7.33
2023-02-14T08:16:06.146Z,7.23
2023-02-14T08:18:35.294Z,6.80
2023-02-14T08:21:03.756Z,7.33
2023-02-14T08:23:31.038Z,7.20
2023-02-14T08:25:58.488Z,7.00
2023-02-14T08:28:26.131Z,6.80
2023-02-14T08:30:53.901Z,7.70
2023-02-14T08:33:21.136Z,7.53
2023-02-14T08:35:48.445Z,7.43
2023-02-14T08:38:15.673Z,7.13
2023-02-14T08:40:42.979Z,7.77
2023-02-14T08:43:10.536Z,7.60
2023-02-14T08:45:38.168Z,7.47
2023-02-14T08:48:06.418Z,7.10
2023-02-14T08:50:33.954Z,7.03
2023-02-14T08:53:01.247Z,6.63
2023-02-14T08:55:28.708Z,6.73
2023-02-14T08:57:57.675Z,5.80
2023-02-14T09:00:25.033Z,6.40
2023-02-14T09:02:52.999Z,6.90
2023-02-14T09:05:23.340Z,6.23
2023-02-14T09:07:50.789Z,6.13
2023-02-14T09:10:21.857Z,6.67
2023-02-14T09:12:49.066Z,7.50
2023-02-14T09:15:16.285Z,7.40
2023-02-14T09:17:43.684Z,6.97
2023-02-14T09:20:12.090Z,7.13
2023-02-14T09:22:39.736Z,7.17
2023-02-14T09:25:07.396Z,7.07
2023-02-14T09:27:34.712Z,7.00
2023-02-14T09:30:02.146Z,6.77
2023-02-14T09:32:29.587Z,7.20
2023-02-14T09:35:15.416Z,6.63
2023-02-14T09:37:42.619Z,7.47
2023-02-14T09:40:10.120Z,6.90
2023-02-14T09:42:46.501Z,5.80
2023-02-14T09:45:15.569Z,4.70
2023-02-14T09:47:43.006Z,5.07
2023-02-14T09:50:34.618Z,4.93
2023-02-14T09:53:14.389Z,4.63
2023-02-14T09:55:52.186Z,3.87
2023-02-14T09:58:34.782Z,4.50
2023-02-14T10:01:24.758Z,4.90
2023-02-14T10:04:11.091Z,3.97
2023-02-14T10:06:44.380Z,4.37
2023-02-14T10:09:23.742Z,5.20
2023-02-14T10:11:51.201Z,4.67
2023-02-14T10:14:19.942Z,5.30
2023-02-14T10:16:50.485Z,4.90
2023-02-14T10:19:26.923Z,4.60
2023-02-14T10:22:03.129Z,4.57
2023-02-14T10:24:51.892Z,4.23
2023-02-14T10:27:31.278Z,4.67
2023-02-14T10:29:58.543Z,4.33
2023-02-14T10:32:30.343Z,4.40
2023-02-14T10:35:01.268Z,3.43
2023-02-14T10:37:37.616Z,4.03
2023-02-14T10:40:23.597Z,3.87
2023-02-14T10:42:57.663Z,3.63
2023-02-14T10:45:32.305Z,2.97
2023-02-14T10:48:03.948Z,2.93
2023-02-14T10:50:46.598Z,3.77
2023-02-14T10:53:22.989Z,3.30
2023-02-14T10:55:55.099Z,3.10
2023-02-14T10:58:23.630Z,2.80
2023-02-14T11:00:56.740Z,2.80
2023-02-14T11:03:24.725Z,3.00
2023-02-14T11:05:52.010Z,2.83
2023-02-14T11:08:48.381Z,3.20
2023-02-14T11:11:15.562Z,3.30
2023-02-14T11:13:43.210Z,3.20
2023-02-14T11:16:12.402Z,3.13
2023-02-14T11:18:40.956Z,2.93
2023-02-14T11:21:17.819Z,5.13
2023-02-14T11:23:46.452Z,11.83
2023-02-14T11:26:25.911Z,4.47
2023-02-14T11:29:04.178Z,4.93
2023-02-14T11:31:36.148Z,3.83
2023-02-14T11:34:16.690Z,3.70
2023-02-14T11:36:43.864Z,5.63
2023-02-14T11:39:28.367Z,4.40
2023-02-14T11:41:56.356Z,3.87
2023-02-14T11:44:25.030Z,5.23
2023-02-14T11:46:53.909Z,4.03
2023-02-14T11:49:29.350Z,4.00
2023-02-14T11:51:57.542Z,3.90
2023-02-14T11:54:45.107Z,4.10
2023-02-14T11:57:14.239Z,4.37
2023-02-14T11:59:53.330Z,6.53
2023-02-14T12:02:39.172Z,4.20
2023-02-14T12:05:16.211Z,4.47
2023-02-14T12:07:44.446Z,4.50
2023-02-14T12:10:11.675Z,7.30
2023-02-14T12:12:40.035Z,4.27
2023-02-14T12:15:24.033Z,4.20
2023-02-14T12:17:54.441Z,4.17
2023-02-14T12:20:27.373Z,3.50
2023-02-14T12:23:11.374Z,3.20
2023-02-14T12:25:41.598Z,4.00
2023-02-14T12:28:13.336Z,3.40
2023-02-14T12:30:41.043Z,9.17
2023-02-14T12:33:26.157Z,4.63
2023-02-14T12:36:02.706Z,4.07
2023-02-14T12:38:48.124Z,3.67
2023-02-14T12:41:34.094Z,3.60
2023-02-14T12:44:21.777Z,3.30
2023-02-14T12:47:02.899Z,4.13
2023-02-14T12:49:33.323Z,4.00
2023-02-14T12:52:19.171Z,4.23
2023-02-14T12:54:55.476Z,3.23
2023-02-14T12:57:25.504Z,3.40
2023-02-14T12:59:58.618Z,3.63
2023-02-14T13:02:31.867Z,3.03
2023-02-14T13:05:02.403Z,3.47
2023-02-14T13:07:45.974Z,3.10
2023-02-14T13:10:23.438Z,3.37
2023-02-14T13:13:03.354Z,3.53
2023-02-14T13:15:47.121Z,2.93
2023-02-14T13:18:17.084Z,3.07
2023-02-14T13:20:51.396Z,3.20
2023-02-14T13:23:21.949Z,3.50
2023-02-14T13:25:55.222Z,3.20
2023-02-14T13:28:22.784Z,3.50
2023-02-14T13:30:50.058Z,3.33
2023-02-14T13:33:38.013Z,4.30
2023-02-14T13:36:08.031Z,4.00
2023-02-14T13:38:38.125Z,4.37
2023-02-14T13:41:05.794Z,3.90
2023-02-14T13:43:49.135Z,3.40
2023-02-14T13:46:19.266Z,3.90
2023-02-14T13:48:56.614Z,3.20
2023-02-14T13:51:43.912Z,3.63
2023-02-14T13:54:30.180Z,5.00
2023-02-14T13:56:58.053Z,4.83
2023-02-14T13:59:35.754Z,4.80
2023-02-14T14:02:22.868Z,5.10
2023-02-14T14:04:50.456Z,4.50
2023-02-14T14:07:19.329Z,4.73
2023-02-14T14:09:47.591Z,4.67
2023-02-14T14:12:24.011Z,5.00
2023-02-14T14:15:06.622Z,5.43
2023-02-14T14:17:35.908Z,5.27
2023-02-14T14:20:04.713Z,4.70
2023-02-14T14:22:32.086Z,6.00
2023-02-14T14:25:00.866Z,5.20
2023-02-14T14:27:30.986Z,5.60
2023-02-14T14:29:59.545Z,5.27
2023-02-14T14:32:26.748Z,5.77
2023-02-14T14:34:55.504Z,5.47
2023-02-14T14:37:25.058Z,4.77
2023-02-14T14:39:53.572Z,4.63
2023-02-14T14:42:21.536Z,4.93
2023-02-14T14:45:00.118Z,4.90
2023-02-14T14:47:29.131Z,4.73
2023-02-14T14:49:59.698Z,5.20
2023-02-14T14:52:45.295Z,4.50
2023-02-14T14:55:31.803Z,4.70
2023-02-14T14:58:00.194Z,5.40
2023-02-14T15:00:28.921Z,4.90
2023-02-14T15:03:04.301Z,5.43
2023-02-14T15:05:51.308Z,5.17
2023-02-14T15:08:33.588Z,6.27
2023-02-14T15:11:03.309Z,5.57
2023-02-14T15:13:54.705Z,5.37
2023-02-14T15:16:24.324Z,5.13
2023-02-14T15:18:52.355Z,4.97
2023-02-14T15:21:19.689Z,5.17
2023-02-14T15:23:47.370Z,6.43
2023-02-14T15:26:18.822Z,5.83
2023-02-14T15:28:54.314Z,6.50
2023-02-14T15:31:21.779Z,7.23
2023-02-14T15:33:49.825Z,7.80
2023-02-14T15:36:20.493Z,7.40
2023-02-14T15:38:48.168Z,6.90
2023-02-14T15:41:16.586Z,7.10
2023-02-14T15:43:44.275Z,6.83
2023-02-14T15:46:21.092Z,7.10
2023-02-14T15:48:48.909Z,6.60
2023-02-14T15:51:17.663Z,7.00
2023-02-14T15:53:46.694Z,7.53
2023-02-14T15:56:20.385Z,8.90
2023-02-14T15:58:47.786Z,9.27
2023-02-14T16:01:15.157Z,7.93
2023-02-14T16:03:49.266Z,8.87
2023-02-14T16:06:30.382Z,8.13
2023-02-14T16:08:58.225Z,7.20
2023-02-14T16:11:31.516Z,10.43
2023-02-14T16:13:59.178Z,11.27
2023-02-14T16:16:26.442Z,12.13
2023-02-14T16:18:56.795Z,14.10
2023-02-14T16:21:28.071Z,13.30
2023-02-14T16:24:07.390Z,12.53
2023-02-14T16:26:35.574Z,13.77
2023-02-14T16:29:03.725Z,13.30
2023-02-14T16:31:31.087Z,12.20
2023-02-14T16:33:58.334Z,12.40
2023-02-14T16:36:27.583Z,10.57
2023-02-14T16:38:55.984Z,9.87
2023-02-14T16:41:27.347Z,10.23
2023-02-14T16:43:55.029Z,7.60
2023-02-14T16:46:32.406Z,7.93
2023-02-14T16:48:59.849Z,8.77
2023-02-14T16:51:28.795Z,8.13
2023-02-14T16:53:58.083Z,8.70
2023-02-14T16:56:30.625Z,7.97
2023-02-14T16:58:57.991Z,8.63
2023-02-14T17:01:26.087Z,7.93
2023-02-14T17:03:53.301Z,8.20
2023-02-14T17:06:22.918Z,8.47
2023-02-14T17:08:51.603Z,8.63
2023-02-14T17:11:19.221Z,10.07
2023-02-14T17:13:47.620Z,14.00
2023-02-14T17:16:15.698Z,25.47
2023-02-14T17:18:43.769Z,32.43
2023-02-14T17:21:11.098Z,38.40
2023-02-14T17:23:38.624Z,40.03
2023-02-14T17:26:06.409Z,38.40
2023-02-14T17:28:33.862Z,41.17
2023-02-14T17:31:01.421Z,64.33
2023-02-14T17:33:30.480Z,59.27
2023-02-14T17:36:03.646Z,63.47
2023-02-14T17:38:31.178Z,60.20
2023-02-14T17:40:58.586Z,76.53
2023-02-14T17:43:26.018Z,76.00
2023-02-14T17:45:53.224Z,64.43
2023-02-14T17:48:20.433Z,56.43
2023-02-14T17:50:47.643Z,55.80
2023-02-14T17:53:14.923Z,79.77
2023-02-14T17:55:42.186Z,90.80
2023-02-14T17:58:09.407Z,102.47
2023-02-14T18:00:36.589Z,114.17
2023-02-14T18:03:04.158Z,99.50
2023-02-14T18:05:31.399Z,99.63
2023-02-14T18:07:58.954Z,101.67
2023-02-14T18:10:26.210Z,109.33
2023-02-14T18:12:53.480Z,113.80
2023-02-14T18:15:21.139Z,144.67
2023-02-14T18:17:51.676Z,155.97
2023-02-14T18:20:21.624Z,152.37
2023-02-14T18:22:48.785Z,150.57
2023-02-14T18:25:16.199Z,143.23
2023-02-14T18:27:43.479Z,138.23
2023-02-14T18:30:11.050Z,137.03
2023-02-14T18:32:38.473Z,153.10
2023-02-14T18:35:05.830Z,143.37
2023-02-14T18:37:33.193Z,151.57
2023-02-14T18:40:00.529Z,151.13
2023-02-14T18:42:28.037Z,154.90
2023-02-14T18:44:55.279Z,139.47
2023-02-14T18:47:22.468Z,133.33
2023-02-14T18:49:50.011Z,129.33
2023-02-14T18:52:17.463Z,123.73
2023-02-14T18:54:44.715Z,126.93
2023-02-14T18:57:12.156Z,121.97
2023-02-14T18:59:39.436Z,116.10
2023-02-14T19:02:06.953Z,123.03
2023-02-14T19:04:34.221Z,141.47
2023-02-14T19:07:04.545Z,172.97
2023-02-14T19:09:38.949Z,215.37
2023-02-14T19:12:09.358Z,178.97
2023-02-14T19:14:37.079Z,170.03
2023-02-14T19:17:04.758Z,207.37
2023-02-14T19:19:32.326Z,247.00
2023-02-14T19:22:00.410Z,281.83
2023-02-14T19:24:28.601Z,286.37
2023-02-14T19:26:56.925Z,298.30
2023-02-14T19:29:24.700Z,286.43
2023-02-14T19:31:54.972Z,275.77
2023-02-14T19:34:29.267Z,276.77
2023-02-14T19:36:59.099Z,262.37
2023-02-14T19:39:30.640Z,245.97
2023-02-14T19:41:59.018Z,227.47
2023-02-14T19:44:26.288Z,230.07
2023-02-14T19:46:59.882Z,224.50
2023-02-14T19:49:28.396Z,229.37
2023-02-14T19:51:55.889Z,220.30
2023-02-14T19:54:25.610Z,232.27
2023-02-14T19:56:55.466Z,227.97
2023-02-14T19:59:22.853Z,285.17
2023-02-14T20:01:51.390Z,254.73
2023-02-14T20:04:20.161Z,249.17
2023-02-14T20:06:47.964Z,274.93
2023-02-14T20:09:15.949Z,266.97
2023-02-14T20:11:50.175Z,250.33
2023-02-14T20:14:22.047Z,232.87
2023-02-14T20:16:49.740Z,228.57
2023-02-14T20:19:18.124Z,216.70
2023-02-14T20:21:46.164Z,199.97
2023-02-14T20:24:14.401Z,190.07
2023-02-14T20:26:41.803Z,195.00
2023-02-14T20:29:12.912Z,188.63
2023-02-14T20:31:45.231Z,173.97
2023-02-14T20:34:13.296Z,176.33
2023-02-14T20:36:40.744Z,176.27
2023-02-14T20:39:08.873Z,159.53
2023-02-14T20:41:36.251Z,145.67
2023-02-14T20:44:08.054Z,151.80
2023-02-14T20:46:35.993Z,149.53
2023-02-14T20:49:03.410Z,154.20
2023-02-14T20:51:30.664Z,144.97
2023-02-14T20:53:58.245Z,136.03
2023-02-14T20:56:25.466Z,129.77
2023-02-14T20:58:55.429Z,119.77
2023-02-14T21:01:23.861Z,115.13
2023-02-14T21:03:52.249Z,107.03
2023-02-14T21:06:21.729Z,106.30
2023-02-14T21:08:49.527Z,122.00
2023-02-14T21:11:17.614Z,133.90
2023-02-14T21:13:45.027Z,136.27
2023-02-14T21:16:16.723Z,135.67
2023-02-14T21:18:48.845Z,133.57
2023-02-14T21:21:20.052Z,132.07
2023-02-14T21:23:49.552Z,124.53
2023-02-14T21:26:16.995Z,110.87
2023-02-14T21:28:44.849Z,104.63
2023-02-14T21:31:15.952Z,102.93
2023-02-14T21:33:43.260Z,108.97
2023-02-14T21:36:12.020Z,111.93
2023-02-14T21:38:39.305Z,124.87
2023-02-14T21:41:08.420Z,139.00
2023-02-14T21:43:36.766Z,153.07
2023-02-14T21:46:07.290Z,136.07
2023-02-14T21:48:52.999Z,125.83
2023-02-14T21:51:20.920Z,120.77
2023-02-14T21:53:48.507Z,125.13
2023-02-14T21:56:20.447Z,121.60
2023-02-14T21:58:48.272Z,118.00
2023-02-14T22:01:19.838Z,127.80
2023-02-14T22:03:47.390Z,120.63
2023-02-14T22:06:14.775Z,118.07
2023-02-14T22:08:42.839Z,128.63
2023-02-14T22:11:14.443Z,134.67
2023-02-14T22:13:42.386Z,135.17
2023-02-14T22:16:13.257Z,129.63
2023-02-14T22:18:40.935Z,116.43
2023-02-14T22:21:09.582Z,117.67
2023-02-14T22:23:37.275Z,110.90
2023-02-14T22:26:14.838Z,103.87
2023-02-14T22:28:42.440Z,106.73
2023-02-14T22:31:10.973Z,109.40
2023-02-14T22:33:38.269Z,118.23
2023-02-14T22:36:05.770Z,101.67
2023-02-14T22:38:33.152Z,98.03
2023-02-14T22:41:06.539Z,97.40
2023-02-14T22:43:34.231Z,95.77
2023-02-14T22:46:06.081Z,94.77
2023-02-14T22:48:34.213Z,91.27
2023-02-14T22:51:13.260Z,93.83
2023-02-14T22:53:40.658Z,95.07
2023-02-14T22:56:12.247Z,92.00
2023-02-14T22:58:39.637Z,86.77
2023-02-14T23:01:09.076Z,86.13
2023-02-14T23:03:36.368Z,87.97
2023-02-14T23:06:03.826Z,96.70
2023-02-14T23:08:31.652Z,94.97
2023-02-14T23:11:06.228Z,100.87
2023-02-14T23:13:51.985Z,95.67
2023-02-14T23:16:38.298Z,93.73
2023-02-14T23:19:24.445Z,91.30
2023-02-14T23:21:55.075Z,86.33
2023-02-14T23:24:23.047Z,90.03
2023-02-14T23:26:50.541Z,85.07
2023-02-14T23:29:17.717Z,85.60
2023-02-14T23:31:45.246Z,81.37
2023-02-14T23:34:12.732Z,79.57
2023-02-14T23:36:39.933Z,75.43
2023-02-14T23:39:07.276Z,73.57
2023-02-14T23:41:49.894Z,71.37
2023-02-14T23:44:24.641Z,68.73
2023-02-14T23:46:55.652Z,68.53
2023-02-14T23:49:23.461Z,67.83
2023-02-14T23:51:51.235Z,65.53
2023-02-14T23:54:19.304Z,68.07
2023-02-14T23:56:47.003Z,66.03
2023-02-14T23:59:14.681Z,67.40
